Terminal Aerodrome Forecast
Issued by NWS Springfield, MO

Home | Current Version | Previous Version | Text Only | Print | Product List | Glossary On
Versions: 1 2 3 4 5 6 7 8 9 10 11 12 13 14 15
000
FTUS43 KSGF 281700 RRA
TAFSGF
TAF
KSGF 281748Z 2818/2918 17017G25KT P6SM SKC
     FM290000 18016KT P6SM SCT250 WS020/22045KT
     FM290600 24014KT P6SM SCT250
     FM291000 31010KT P6SM SKC
     FM291500 33014G22KT P6SM BKN050=

USA.gov is the U.S. government's official web portal to all federal, state and local government web resources and services.